Machens, Missouri
Current Conditions -  °F | °C
As of 11:06 AM on Tuesday 21 Oct 2014 (Local Time) from KSET Reporting Station
Clear Clear  
Wind Chill: 61°   Ceiling: Unl
Heat Index: 61°   Visibility: 10mi
Dew Point: 47°   Wind: 7mph
Humidity: 60%   Direction: NA
Pressure: 30.14"   Gusts: NA
Location:  38.9266°N, 90.3904°W
Report Text: KSET 211606Z AUTO VRB06KT 10SM CLR 16/08 A3014 RMK AO2 T01610083 PWINO $
Loading
Personal Weather Stations






























Interactive Weather Map
Tropical Storm Tracking
New forecast layout! Learn more

10-Day Weather Forecast

Advertisements
Track Severe Weather on mobile